sensor_id;sensor_type;location;lat;lon;timestamp;pressure;altitude;pressure_sealevel;temperature;humidity
16331;BME280;8275;48.206;16.340;2022-12-07T00:01:46;99047.25;;;10.98;47.17
16331;BME280;8275;48.206;16.340;2022-12-07T00:04:17;99043.41;;;10.99;47.38
16331;BME280;8275;48.206;16.340;2022-12-07T00:06:50;99037.09;;;10.98;47.21
16331;BME280;8275;48.206;16.340;2022-12-07T00:09:21;99039.03;;;10.98;46.81
16331;BME280;8275;48.206;16.340;2022-12-07T00:11:51;99044.50;;;10.98;46.92
16331;BME280;8275;48.206;16.340;2022-12-07T00:14:20;99043.94;;;10.96;46.83
16331;BME280;8275;48.206;16.340;2022-12-07T00:16:49;99041.72;;;10.93;46.60
16331;BME280;8275;48.206;16.340;2022-12-07T00:19:18;99036.50;;;10.91;46.64
16331;BME280;8275;48.206;16.340;2022-12-07T00:21:47;99039.50;;;10.90;46.69
16331;BME280;8275;48.206;16.340;2022-12-07T00:24:15;99044.44;;;10.88;47.09
16331;BME280;8275;48.206;16.340;2022-12-07T00:26:45;99038.94;;;10.88;46.95
16331;BME280;8275;48.206;16.340;2022-12-07T00:29:18;99037.28;;;10.87;46.97
16331;BME280;8275;48.206;16.340;2022-12-07T00:31:47;99038.13;;;10.87;46.70
16331;BME280;8275;48.206;16.340;2022-12-07T00:34:17;99040.84;;;10.87;47.29
16331;BME280;8275;48.206;16.340;2022-12-07T00:36:46;99035.66;;;10.86;47.20
16331;BME280;8275;48.206;16.340;2022-12-07T00:39:16;99028.50;;;10.85;46.77
16331;BME280;8275;48.206;16.340;2022-12-07T00:41:46;99031.78;;;10.82;47.18
16331;BME280;8275;48.206;16.340;2022-12-07T00:44:14;99030.13;;;10.81;46.97
16331;BME280;8275;48.206;16.340;2022-12-07T00:46:43;99018.34;;;10.80;46.88
16331;BME280;8275;48.206;16.340;2022-12-07T00:49:12;99027.38;;;10.81;47.13
16331;BME280;8275;48.206;16.340;2022-12-07T00:51:40;99024.91;;;10.79;47.41
16331;BME280;8275;48.206;16.340;2022-12-07T00:54:09;99031.22;;;10.80;47.30
16331;BME280;8275;48.206;16.340;2022-12-07T00:56:37;99028.72;;;10.78;47.20
16331;BME280;8275;48.206;16.340;2022-12-07T00:59:10;99030.09;;;10.76;47.26
16331;BME280;8275;48.206;16.340;2022-12-07T01:01:40;99022.97;;;10.75;47.29
16331;BME280;8275;48.206;16.340;2022-12-07T01:04:08;99025.16;;;10.73;47.77
16331;BME280;8275;48.206;16.340;2022-12-07T01:06:36;99031.72;;;10.72;47.41
16331;BME280;8275;48.206;16.340;2022-12-07T01:09:05;99033.88;;;10.70;47.35
16331;BME280;8275;48.206;16.340;2022-12-07T01:11:33;99020.47;;;10.68;47.42
16331;BME280;8275;48.206;16.340;2022-12-07T01:14:02;99036.59;;;10.65;47.57
16331;BME280;8275;48.206;16.340;2022-12-07T01:16:32;99036.28;;;10.61;47.58
16331;BME280;8275;48.206;16.340;2022-12-07T01:19:02;99031.34;;;10.58;48.05
16331;BME280;8275;48.206;16.340;2022-12-07T01:21:33;99038.16;;;10.55;48.09
16331;BME280;8275;48.206;16.340;2022-12-07T01:24:06;99039.50;;;10.53;47.93
16331;BME280;8275;48.206;16.340;2022-12-07T01:26:37;99032.94;;;10.54;48.29
16331;BME280;8275;48.206;16.340;2022-12-07T01:29:06;99041.16;;;10.54;47.84
16331;BME280;8275;48.206;16.340;2022-12-07T01:31:36;99033.75;;;10.54;48.19
16331;BME280;8275;48.206;16.340;2022-12-07T01:34:04;99032.69;;;10.55;48.00
16331;BME280;8275;48.206;16.340;2022-12-07T01:36:35;99046.66;;;10.59;48.04
16331;BME280;8275;48.206;16.340;2022-12-07T01:39:06;99031.88;;;10.60;48.25
16331;BME280;8275;48.206;16.340;2022-12-07T01:41:38;99034.13;;;10.63;48.42
16331;BME280;8275;48.206;16.340;2022-12-07T01:44:20;99034.69;;;10.65;47.84
16331;BME280;8275;48.206;16.340;2022-12-07T01:46:52;99044.28;;;10.68;48.36
16331;BME280;8275;48.206;16.340;2022-12-07T01:49:27;99039.63;;;10.68;48.57
16331;BME280;8275;48.206;16.340;2022-12-07T01:52:04;99029.25;;;10.70;48.10
16331;BME280;8275;48.206;16.340;2022-12-07T01:54:36;99037.19;;;10.72;48.38
16331;BME280;8275;48.206;16.340;2022-12-07T01:57:07;99031.19;;;10.75;48.19
16331;BME280;8275;48.206;16.340;2022-12-07T01:59:36;99032.59;;;10.77;48.13
16331;BME280;8275;48.206;16.340;2022-12-07T02:02:15;99036.13;;;10.78;48.13
16331;BME280;8275;48.206;16.340;2022-12-07T02:04:46;99031.22;;;10.80;48.26
16331;BME280;8275;48.206;16.340;2022-12-07T02:07:15;99032.03;;;10.80;48.01
16331;BME280;8275;48.206;16.340;2022-12-07T02:09:44;99028.50;;;10.80;48.13
16331;BME280;8275;48.206;16.340;2022-12-07T02:12:12;99024.66;;;10.81;48.24
16331;BME280;8275;48.206;16.340;2022-12-07T02:14:41;99028.22;;;10.81;48.26
16331;BME280;8275;48.206;16.340;2022-12-07T02:17:20;99030.13;;;10.81;47.86
16331;BME280;8275;48.206;16.340;2022-12-07T02:20:15;99028.50;;;10.80;48.10
16331;BME280;8275;48.206;16.340;2022-12-07T02:26:02;99021.06;;;10.80;48.04
16331;BME280;8275;48.206;16.340;2022-12-07T02:29:00;99021.63;;;10.82;48.16
16331;BME280;8275;48.206;16.340;2022-12-07T02:31:43;99026.88;;;10.84;48.15
16331;BME280;8275;48.206;16.340;2022-12-07T02:34:21;99019.72;;;10.83;47.99
16331;BME280;8275;48.206;16.340;2022-12-07T02:37:00;99022.47;;;10.83;48.28
16331;BME280;8275;48.206;16.340;2022-12-07T02:39:39;99023.28;;;10.83;47.93
16331;BME280;8275;48.206;16.340;2022-12-07T02:42:15;99024.13;;;10.84;47.88
16331;BME280;8275;48.206;16.340;2022-12-07T02:44:47;99030.44;;;10.84;47.84
16331;BME280;8275;48.206;16.340;2022-12-07T02:47:17;99026.59;;;10.85;48.16
16331;BME280;8275;48.206;16.340;2022-12-07T02:49:49;99030.16;;;10.86;48.15
16331;BME280;8275;48.206;16.340;2022-12-07T02:52:18;99025.25;;;10.88;47.89
16331;BME280;8275;48.206;16.340;2022-12-07T02:54:46;99031.56;;;10.88;48.10
16331;BME280;8275;48.206;16.340;2022-12-07T02:57:30;99027.97;;;10.88;47.91
16331;BME280;8275;48.206;16.340;2022-12-07T03:00:07;99023.34;;;10.88;48.26
16331;BME280;8275;48.206;16.340;2022-12-07T03:02:50;99012.38;;;10.88;48.22
16331;BME280;8275;48.206;16.340;2022-12-07T03:05:39;99025.25;;;10.88;48.17
16331;BME280;8275;48.206;16.340;2022-12-07T03:08:15;99017.84;;;10.88;48.22
16331;BME280;8275;48.206;16.340;2022-12-07T03:10:56;99022.22;;;10.89;47.84
16331;BME280;8275;48.206;16.340;2022-12-07T03:13:31;99029.38;;;10.90;48.26
16331;BME280;8275;48.206;16.340;2022-12-07T03:16:09;99021.97;;;10.91;48.34
16331;BME280;8275;48.206;16.340;2022-12-07T03:18:46;99018.69;;;10.94;48.11
16331;BME280;8275;48.206;16.340;2022-12-07T03:21:20;99023.09;;;10.95;47.64
16331;BME280;8275;48.206;16.340;2022-12-07T03:23:55;99014.88;;;10.95;48.08
16331;BME280;8275;48.206;16.340;2022-12-07T03:26:31;99020.09;;;10.96;47.96
16331;BME280;8275;48.206;16.340;2022-12-07T03:29:06;99017.09;;;10.98;47.91
16331;BME280;8275;48.206;16.340;2022-12-07T03:31:41;99024.22;;;10.99;48.24
16331;BME280;8275;48.206;16.340;2022-12-07T03:34:14;99016.00;;;10.99;48.07
16331;BME280;8275;48.206;16.340;2022-12-07T03:36:49;99023.97;;;11.00;48.29
16331;BME280;8275;48.206;16.340;2022-12-07T03:39:24;99019.28;;;11.01;47.97
16331;BME280;8275;48.206;16.340;2022-12-07T03:41:56;99020.13;;;11.01;47.85
16331;BME280;8275;48.206;16.340;2022-12-07T03:44:26;99022.59;;;11.03;47.81
16331;BME280;8275;48.206;16.340;2022-12-07T03:47:02;99023.41;;;11.03;47.80
16331;BME280;8275;48.206;16.340;2022-12-07T03:49:41;99026.44;;;11.02;48.02
16331;BME280;8275;48.206;16.340;2022-12-07T03:52:18;99026.44;;;11.02;47.83
16331;BME280;8275;48.206;16.340;2022-12-07T03:54:57;99025.59;;;11.01;47.87
16331;BME280;8275;48.206;16.340;2022-12-07T03:57:28;99030.00;;;11.02;48.01
16331;BME280;8275;48.206;16.340;2022-12-07T03:59:58;99029.16;;;11.02;48.04
16331;BME280;8275;48.206;16.340;2022-12-07T04:02:29;99031.63;;;11.03;48.20
16331;BME280;8275;48.206;16.340;2022-12-07T04:04:58;99027.81;;;11.04;48.16
16331;BME280;8275;48.206;16.340;2022-12-07T04:07:26;99025.91;;;11.05;48.05
16331;BME280;8275;48.206;16.340;2022-12-07T04:09:55;99034.94;;;11.05;47.94
16331;BME280;8275;48.206;16.340;2022-12-07T04:12:24;99023.72;;;11.07;47.83
16331;BME280;8275;48.206;16.340;2022-12-07T04:14:52;99038.22;;;11.07;47.94
16331;BME280;8275;48.206;16.340;2022-12-07T04:17:20;99030.84;;;11.08;48.16
16331;BME280;8275;48.206;16.340;2022-12-07T04:19:50;99035.50;;;11.07;48.21
16331;BME280;8275;48.206;16.340;2022-12-07T04:22:18;99020.97;;;11.07;48.27
16331;BME280;8275;48.206;16.340;2022-12-07T04:24:47;99032.75;;;11.07;48.11
16331;BME280;8275;48.206;16.340;2022-12-07T04:27:15;99033.59;;;11.08;47.82
16331;BME280;8275;48.206;16.340;2022-12-07T04:29:44;99029.22;;;11.07;48.14
16331;BME280;8275;48.206;16.340;2022-12-07T04:32:12;99036.59;;;11.06;47.80
16331;BME280;8275;48.206;16.340;2022-12-07T04:34:40;99037.69;;;11.05;47.67
16331;BME280;8275;48.206;16.340;2022-12-07T04:37:10;99034.94;;;11.05;47.70
16331;BME280;8275;48.206;16.340;2022-12-07T04:39:38;99031.63;;;11.03;47.80
16331;BME280;8275;48.206;16.340;2022-12-07T04:42:07;99033.81;;;11.01;47.76
16331;BME280;8275;48.206;16.340;2022-12-07T04:44:36;99035.72;;;11.01;47.99
16331;BME280;8275;48.206;16.340;2022-12-07T04:47:04;99036.56;;;11.01;47.88
16331;BME280;8275;48.206;16.340;2022-12-07T04:49:33;99039.31;;;11.01;48.09
16331;BME280;8275;48.206;16.340;2022-12-07T04:52:02;99028.06;;;11.03;48.03
16331;BME280;8275;48.206;16.340;2022-12-07T04:54:32;99027.81;;;11.04;47.95
16331;BME280;8275;48.206;16.340;2022-12-07T04:57:00;99027.53;;;11.06;47.77
16331;BME280;8275;48.206;16.340;2022-12-07T04:59:28;99033.84;;;11.06;48.14
16331;BME280;8275;48.206;16.340;2022-12-07T05:01:57;99030.00;;;11.07;47.73
16331;BME280;8275;48.206;16.340;2022-12-07T05:04:25;99030.00;;;11.07;47.99
16331;BME280;8275;48.206;16.340;2022-12-07T05:06:54;99031.94;;;11.07;47.70
16331;BME280;8275;48.206;16.340;2022-12-07T05:09:22;99025.34;;;11.08;47.67
16331;BME280;8275;48.206;16.340;2022-12-07T05:11:52;99030.00;;;11.07;48.04
16331;BME280;8275;48.206;16.340;2022-12-07T05:14:21;99018.25;;;11.07;47.69
16331;BME280;8275;48.206;16.340;2022-12-07T05:16:50;99029.22;;;11.07;47.60
16331;BME280;8275;48.206;16.340;2022-12-07T05:19:20;99020.16;;;11.06;47.83
16331;BME280;8275;48.206;16.340;2022-12-07T05:21:49;99023.16;;;11.05;47.99
16331;BME280;8275;48.206;16.340;2022-12-07T05:24:17;99021.22;;;11.05;47.95
16331;BME280;8275;48.206;16.340;2022-12-07T05:26:46;99017.69;;;11.05;47.61
16331;BME280;8275;48.206;16.340;2022-12-07T05:29:17;99020.44;;;11.05;47.53
16331;BME280;8275;48.206;16.340;2022-12-07T05:31:45;99016.31;;;11.07;47.49
16331;BME280;8275;48.206;16.340;2022-12-07T05:34:14;99020.97;;;11.07;47.51
16331;BME280;8275;48.206;16.340;2022-12-07T05:36:43;99020.72;;;11.08;47.72
16331;BME280;8275;48.206;16.340;2022-12-07T05:39:11;99014.16;;;11.09;47.84
16331;BME280;8275;48.206;16.340;2022-12-07T05:41:39;99014.69;;;11.11;47.48
16331;BME280;8275;48.206;16.340;2022-12-07T05:44:27;99017.69;;;11.10;47.51
16331;BME280;8275;48.206;16.340;2022-12-07T05:46:55;99022.09;;;11.11;47.82
16331;BME280;8275;48.206;16.340;2022-12-07T05:49:24;99019.06;;;11.12;47.53
16331;BME280;8275;48.206;16.340;2022-12-07T05:51:52;99020.75;;;11.13;47.54
16331;BME280;8275;48.206;16.340;2022-12-07T05:54:20;99019.38;;;11.16;47.36
16331;BME280;8275;48.206;16.340;2022-12-07T05:56:49;99022.97;;;11.16;47.54
16331;BME280;8275;48.206;16.340;2022-12-07T05:59:17;99024.03;;;11.15;47.26
16331;BME280;8275;48.206;16.340;2022-12-07T06:01:55;99022.13;;;11.16;47.72
16331;BME280;8275;48.206;16.340;2022-12-07T06:04:25;99026.78;;;11.15;47.17
16331;BME280;8275;48.206;16.340;2022-12-07T06:06:55;99026.50;;;11.17;47.26
16331;BME280;8275;48.206;16.340;2022-12-07T06:09:26;99030.06;;;11.17;47.66
16331;BME280;8275;48.206;16.340;2022-12-07T06:11:55;99033.66;;;11.18;47.24
16331;BME280;8275;48.206;16.340;2022-12-07T06:14:41;99031.75;;;11.18;47.38
16331;BME280;8275;48.206;16.340;2022-12-07T06:17:12;99030.63;;;11.19;47.50
16331;BME280;8275;48.206;16.340;2022-12-07T06:19:41;99033.13;;;11.21;47.09
16331;BME280;8275;48.206;16.340;2022-12-07T06:22:10;99035.88;;;11.21;46.93
16331;BME280;8275;48.206;16.340;2022-12-07T06:24:39;99031.19;;;11.21;47.08
16331;BME280;8275;48.206;16.340;2022-12-07T06:27:08;99027.38;;;11.22;46.94
16331;BME280;8275;48.206;16.340;2022-12-07T06:29:37;99029.59;;;11.25;47.51
16331;BME280;8275;48.206;16.340;2022-12-07T06:32:05;99034.78;;;11.27;47.26
16331;BME280;8275;48.206;16.340;2022-12-07T06:34:35;99035.34;;;11.29;47.06
16331;BME280;8275;48.206;16.340;2022-12-07T06:37:04;99032.59;;;11.29;47.26
16331;BME280;8275;48.206;16.340;2022-12-07T06:39:32;99030.69;;;11.29;46.76
16331;BME280;8275;48.206;16.340;2022-12-07T06:42:00;99037.56;;;11.32;46.97
16331;BME280;8275;48.206;16.340;2022-12-07T06:44:29;99040.31;;;11.32;47.30
16331;BME280;8275;48.206;16.340;2022-12-07T06:46:57;99038.13;;;11.34;47.07
16331;BME280;8275;48.206;16.340;2022-12-07T06:49:47;99042.78;;;11.34;47.12
16331;BME280;8275;48.206;16.340;2022-12-07T06:52:15;99045.53;;;11.34;46.80
16331;BME280;8275;48.206;16.340;2022-12-07T06:54:44;99041.94;;;11.33;47.14
16331;BME280;8275;48.206;16.340;2022-12-07T06:57:12;99038.13;;;11.34;47.08
16331;BME280;8275;48.206;16.340;2022-12-07T06:59:40;99032.38;;;11.36;46.59
16331;BME280;8275;48.206;16.340;2022-12-07T07:02:09;99035.66;;;11.38;46.64
16331;BME280;8275;48.206;16.340;2022-12-07T07:04:37;99028.25;;;11.38;46.64
16331;BME280;8275;48.206;16.340;2022-12-07T07:07:07;99034.31;;;11.40;46.63
16331;BME280;8275;48.206;16.340;2022-12-07T07:09:36;99026.06;;;11.40;46.96
16331;BME280;8275;48.206;16.340;2022-12-07T07:12:04;99034.06;;;11.42;46.66
16331;BME280;8275;48.206;16.340;2022-12-07T07:14:33;99037.59;;;11.42;46.78
16331;BME280;8275;48.206;16.340;2022-12-07T07:17:01;99039.81;;;11.45;46.96
16331;BME280;8275;48.206;16.340;2022-12-07T07:19:30;99035.72;;;11.48;46.84
16331;BME280;8275;48.206;16.340;2022-12-07T07:21:58;99035.44;;;11.49;46.83
16331;BME280;8275;48.206;16.340;2022-12-07T07:24:28;99039.00;;;11.50;46.41
16331;BME280;8275;48.206;16.340;2022-12-07T07:26:56;99053.56;;;11.50;46.10
16331;BME280;8275;48.206;16.340;2022-12-07T07:29:25;99059.03;;;11.50;46.59
16331;BME280;8275;48.206;16.340;2022-12-07T07:31:53;99048.91;;;11.51;46.64
16331;BME280;8275;48.206;16.340;2022-12-07T07:34:21;99060.69;;;11.51;45.98
16331;BME280;8275;48.206;16.340;2022-12-07T07:36:50;99056.03;;;11.52;46.31
16331;BME280;8275;48.206;16.340;2022-12-07T07:39:18;99059.31;;;11.54;46.26
16331;BME280;8275;48.206;16.340;2022-12-07T07:41:48;99048.91;;;11.56;46.46
16331;BME280;8275;48.206;16.340;2022-12-07T07:44:17;99053.31;;;11.57;46.50
16331;BME280;8275;48.206;16.340;2022-12-07T07:46:45;99062.66;;;11.61;46.60
16331;BME280;8275;48.206;16.340;2022-12-07T07:49:13;99059.09;;;11.65;46.12
16331;BME280;8275;48.206;16.340;2022-12-07T07:51:42;99054.78;;;11.69;46.58
16331;BME280;8275;48.206;16.340;2022-12-07T07:54:10;99052.31;;;11.73;46.57
16331;BME280;8275;48.206;16.340;2022-12-07T07:56:39;99048.47;;;11.74;46.54
16331;BME280;8275;48.206;16.340;2022-12-07T07:59:08;99051.50;;;11.77;46.41
16331;BME280;8275;48.206;16.340;2022-12-07T08:01:37;99067.44;;;11.80;46.03
16331;BME280;8275;48.206;16.340;2022-12-07T08:04:05;99050.69;;;11.82;46.14
16331;BME280;8275;48.206;16.340;2022-12-07T08:06:34;99061.38;;;11.83;46.11
16331;BME280;8275;48.206;16.340;2022-12-07T08:09:03;99066.88;;;11.83;46.16
16331;BME280;8275;48.206;16.340;2022-12-07T08:11:32;99064.44;;;11.87;46.19
16331;BME280;8275;48.206;16.340;2022-12-07T08:14:01;99064.72;;;11.90;46.07
16331;BME280;8275;48.206;16.340;2022-12-07T08:16:31;99060.06;;;11.96;46.00
16331;BME280;8275;48.206;16.340;2022-12-07T08:18:59;99058.44;;;12.00;45.78
16331;BME280;8275;48.206;16.340;2022-12-07T08:21:28;99054.03;;;12.04;45.90
16331;BME280;8275;48.206;16.340;2022-12-07T08:23:57;99060.91;;;12.07;45.63
16331;BME280;8275;48.206;16.340;2022-12-07T08:26:26;99060.09;;;12.06;45.81
16331;BME280;8275;48.206;16.340;2022-12-07T08:28:54;99069.72;;;12.09;45.78
16331;BME280;8275;48.206;16.340;2022-12-07T08:31:22;99070.00;;;12.12;45.89
16331;BME280;8275;48.206;16.340;2022-12-07T08:33:52;99070.56;;;12.19;45.47
16331;BME280;8275;48.206;16.340;2022-12-07T08:36:21;99070.81;;;12.23;45.78
16331;BME280;8275;48.206;16.340;2022-12-07T08:38:50;99080.75;;;12.29;45.72
16331;BME280;8275;48.206;16.340;2022-12-07T08:41:38;99079.38;;;12.36;45.75
16331;BME280;8275;48.206;16.340;2022-12-07T08:44:07;99086.25;;;12.44;45.67
16331;BME280;8275;48.206;16.340;2022-12-07T08:46:38;99083.22;;;12.50;45.43
16331;BME280;8275;48.206;16.340;2022-12-07T08:49:13;99085.44;;;12.58;45.34
16331;BME280;8275;48.206;16.340;2022-12-07T08:51:43;99095.63;;;12.58;44.96
16331;BME280;8275;48.206;16.340;2022-12-07T08:54:14;99090.66;;;12.55;45.04
16331;BME280;8275;48.206;16.340;2022-12-07T08:56:43;99090.66;;;12.55;44.81
16331;BME280;8275;48.206;16.340;2022-12-07T08:59:14;99095.63;;;12.58;44.28
16331;BME280;8275;48.206;16.340;2022-12-07T09:01:45;99102.78;;;12.59;44.10
16331;BME280;8275;48.206;16.340;2022-12-07T09:04:15;99088.19;;;12.58;44.12
16331;BME280;8275;48.206;16.340;2022-12-07T09:06:43;99091.50;;;12.60;44.34
16331;BME280;8275;48.206;16.340;2022-12-07T09:09:13;99094.25;;;12.60;44.24
16331;BME280;8275;48.206;16.340;2022-12-07T09:11:42;99096.44;;;12.58;43.99
16331;BME280;8275;48.206;16.340;2022-12-07T09:14:12;99090.94;;;12.53;43.46
16331;BME280;8275;48.206;16.340;2022-12-07T09:16:40;99098.34;;;12.48;43.39
16331;BME280;8275;48.206;16.340;2022-12-07T09:19:09;99092.00;;;12.37;43.06
16331;BME280;8275;48.206;16.340;2022-12-07T09:21:39;99093.38;;;12.25;42.85
16331;BME280;8275;48.206;16.340;2022-12-07T09:24:08;99079.59;;;12.10;42.63
16331;BME280;8275;48.206;16.340;2022-12-07T09:26:36;99079.28;;;11.96;43.15
16331;BME280;8275;48.206;16.340;2022-12-07T09:29:06;99085.56;;;11.86;43.29
16331;BME280;8275;48.206;16.340;2022-12-07T09:31:36;99086.09;;;11.78;43.35
16331;BME280;8275;48.206;16.340;2022-12-07T09:34:05;99086.06;;;11.73;43.16
16331;BME280;8275;48.206;16.340;2022-12-07T09:36:34;99090.44;;;11.69;43.37
16331;BME280;8275;48.206;16.340;2022-12-07T09:39:04;99083.78;;;11.65;43.09
16331;BME280;8275;48.206;16.340;2022-12-07T09:41:33;99082.16;;;11.64;43.43
16331;BME280;8275;48.206;16.340;2022-12-07T09:44:10;99086.25;;;11.62;43.24
16331;BME280;8275;48.206;16.340;2022-12-07T09:46:42;99090.63;;;11.63;43.31
16331;BME280;8275;48.206;16.340;2022-12-07T09:49:14;99091.22;;;11.65;43.62
16331;BME280;8275;48.206;16.340;2022-12-07T09:51:45;99079.47;;;11.69;43.47
16331;BME280;8275;48.206;16.340;2022-12-07T09:54:16;99086.06;;;11.73;43.45
16331;BME280;8275;48.206;16.340;2022-12-07T09:56:44;99072.91;;;11.75;43.31
16331;BME280;8275;48.206;16.340;2022-12-07T09:59:17;99079.78;;;11.78;43.36
16331;BME280;8275;48.206;16.340;2022-12-07T10:01:49;99073.75;;;11.81;43.60
16331;BME280;8275;48.206;16.340;2022-12-07T10:04:21;99069.91;;;11.82;43.09
16331;BME280;8275;48.206;16.340;2022-12-07T10:06:50;99064.94;;;11.79;42.22
16331;BME280;8275;48.206;16.340;2022-12-07T10:09:21;99062.19;;;11.79;42.42
16331;BME280;8275;48.206;16.340;2022-12-07T10:12:04;99055.34;;;11.81;42.60
16331;BME280;8275;48.206;16.340;2022-12-07T10:14:36;99048.75;;;11.77;41.44
16331;BME280;8275;48.206;16.340;2022-12-07T10:17:36;99048.72;;;11.72;41.11
16331;BME280;8275;48.206;16.340;2022-12-07T10:20:19;99043.53;;;11.71;41.72
16331;BME280;8275;48.206;16.340;2022-12-07T10:23:00;99055.88;;;11.73;42.04
16331;BME280;8275;48.206;16.340;2022-12-07T10:25:33;99052.88;;;11.80;42.19
16331;BME280;8275;48.206;16.340;2022-12-07T10:28:15;99038.63;;;11.93;42.05
16331;BME280;8275;48.206;16.340;2022-12-07T10:30:56;99042.25;;;12.14;40.03
16331;BME280;8275;48.206;16.340;2022-12-07T10:33:49;99050.28;;;12.40;40.87
16331;BME280;8275;48.206;16.340;2022-12-07T10:36:22;99031.31;;;12.69;39.04
16331;BME280;8275;48.206;16.340;2022-12-07T10:38:59;99033.50;;;12.82;37.56
16331;BME280;8275;48.206;16.340;2022-12-07T10:41:29;99005.72;;;12.84;37.17
16331;BME280;8275;48.206;16.340;2022-12-07T10:43:58;99024.97;;;12.84;36.79
16331;BME280;8275;48.206;16.340;2022-12-07T10:47:08;99021.16;;;12.75;37.80
16331;BME280;8275;48.206;16.340;2022-12-07T10:53:19;99025.25;;;12.62;38.03
16331;BME280;8275;48.206;16.340;2022-12-07T10:56:20;99023.88;;;12.59;38.87
16331;BME280;8275;48.206;16.340;2022-12-07T10:59:17;99015.94;;;12.63;39.37
16331;BME280;8275;48.206;16.340;2022-12-07T11:01:57;99019.22;;;12.65;39.75
16331;BME280;8275;48.206;16.340;2022-12-07T11:04:35;99026.34;;;12.71;39.80
16331;BME280;8275;48.206;16.340;2022-12-07T11:07:12;99018.94;;;12.77;39.74
16331;BME280;8275;48.206;16.340;2022-12-07T11:10:02;99020.84;;;12.81;39.33
16331;BME280;8275;48.206;16.340;2022-12-07T11:12:54;99020.03;;;12.81;38.99
16331;BME280;8275;48.206;16.340;2022-12-07T11:15:38;99026.09;;;12.78;39.04
16331;BME280;8275;48.206;16.340;2022-12-07T11:18:16;99027.72;;;12.79;38.78
16331;BME280;8275;48.206;16.340;2022-12-07T11:20:55;99034.59;;;12.81;39.22
16331;BME280;8275;48.206;16.340;2022-12-07T11:23:48;99018.09;;;12.86;39.15
16331;BME280;8275;48.206;16.340;2022-12-07T11:26:34;99013.69;;;12.90;38.76
16331;BME280;8275;48.206;16.340;2022-12-07T11:29:35;99012.88;;;12.90;38.79
16331;BME280;8275;48.206;16.340;2022-12-07T11:32:17;99008.75;;;12.87;38.96
16331;BME280;8275;48.206;16.340;2022-12-07T11:34:59;99010.16;;;12.80;38.13
16331;BME280;8275;48.206;16.340;2022-12-07T11:37:37;99004.09;;;12.67;37.86
16331;BME280;8275;48.206;16.340;2022-12-07T11:40:19;99013.16;;;12.53;38.18
16331;BME280;8275;48.206;16.340;2022-12-07T11:42:55;99018.69;;;12.38;36.87
16331;BME280;8275;48.206;16.340;2022-12-07T11:45:28;99008.47;;;12.18;37.48
16331;BME280;8275;48.206;16.340;2022-12-07T11:48:01;99011.22;;;12.03;37.57
16331;BME280;8275;48.206;16.340;2022-12-07T11:50:36;99011.75;;;11.90;37.44
16331;BME280;8275;48.206;16.340;2022-12-07T11:53:17;99007.63;;;11.97;37.89
16331;BME280;8275;48.206;16.340;2022-12-07T11:55:50;99014.56;;;12.45;37.92
16331;BME280;8275;48.206;16.340;2022-12-07T11:58:39;99007.09;;;12.91;38.09
16331;BME280;8275;48.206;16.340;2022-12-07T12:01:35;99002.25;;;13.52;37.51
16331;BME280;8275;48.206;16.340;2022-12-07T12:04:25;98999.16;;;14.18;36.63
16331;BME280;8275;48.206;16.340;2022-12-07T12:06:55;98995.63;;;14.80;36.73
16331;BME280;8275;48.206;16.340;2022-12-07T12:09:30;98987.22;;;15.42;36.36
16331;BME280;8275;48.206;16.340;2022-12-07T12:12:27;98976.88;;;16.13;36.10
16331;BME280;8275;48.206;16.340;2022-12-07T12:15:45;98976.22;;;16.86;35.29
16331;BME280;8275;48.206;16.340;2022-12-07T12:18:38;98967.88;;;17.32;34.24
16331;BME280;8275;48.206;16.340;2022-12-07T12:21:14;98972.09;;;17.70;33.71
16331;BME280;8275;48.206;16.340;2022-12-07T12:23:50;98959.34;;;17.83;30.79
16331;BME280;8275;48.206;16.340;2022-12-07T12:26:21;98963.94;;;17.87;30.97
16331;BME280;8275;48.206;16.340;2022-12-07T12:28:55;98950.03;;;17.79;29.96
16331;BME280;8275;48.206;16.340;2022-12-07T12:31:36;98959.78;;;17.22;30.54
16331;BME280;8275;48.206;16.340;2022-12-07T12:34:38;98952.31;;;16.44;31.67
16331;BME280;8275;48.206;16.340;2022-12-07T12:37:46;98962.91;;;15.68;32.16
16331;BME280;8275;48.206;16.340;2022-12-07T12:40:41;98968.31;;;15.07;32.21
16331;BME280;8275;48.206;16.340;2022-12-07T12:43:56;98974.19;;;14.43;33.09
16331;BME280;8275;48.206;16.340;2022-12-07T12:46:46;98973.06;;;14.05;34.09
16331;BME280;8275;48.206;16.340;2022-12-07T12:49:36;98969.94;;;13.78;34.50
16331;BME280;8275;48.206;16.340;2022-12-07T12:52:53;98974.75;;;13.52;34.97
16331;BME280;8275;48.206;16.340;2022-12-07T12:55:56;98964.13;;;13.30;35.41
16331;BME280;8275;48.206;16.340;2022-12-07T12:58:39;98963.88;;;13.17;35.82
16331;BME280;8275;48.206;16.340;2022-12-07T13:01:41;98959.78;;;12.99;36.01
16331;BME280;8275;48.206;16.340;2022-12-07T13:04:40;98968.09;;;12.84;36.26
16331;BME280;8275;48.206;16.340;2022-12-07T13:07:55;98975.25;;;12.70;36.21
16331;BME280;8275;48.206;16.340;2022-12-07T13:10:42;98984.31;;;12.60;36.70
16331;BME280;8275;48.206;16.340;2022-12-07T13:13:35;98970.03;;;12.48;36.67
16331;BME280;8275;48.206;16.340;2022-12-07T13:16:39;98976.09;;;12.35;36.69
16331;BME280;8275;48.206;16.340;2022-12-07T13:22:51;98988.16;;;12.14;37.11
16331;BME280;8275;48.206;16.340;2022-12-07T13:25:44;98989.53;;;12.07;37.63
16331;BME280;8275;48.206;16.340;2022-12-07T13:28:17;98985.97;;;12.01;36.70
16331;BME280;8275;48.206;16.340;2022-12-07T13:31:12;98977.97;;;11.89;36.94
16331;BME280;8275;48.206;16.340;2022-12-07T13:33:44;98979.63;;;11.85;36.85
16331;BME280;8275;48.206;16.340;2022-12-07T13:36:21;98987.28;;;11.78;36.96
16331;BME280;8275;48.206;16.340;2022-12-07T13:38:54;98983.72;;;11.73;37.05
16331;BME280;8275;48.206;16.340;2022-12-07T13:41:27;98994.66;;;11.68;37.25
16331;BME280;8275;48.206;16.340;2022-12-07T13:44:07;98988.03;;;11.64;37.28
16331;BME280;8275;48.206;16.340;2022-12-07T13:46:48;98985.03;;;11.60;37.24
16331;BME280;8275;48.206;16.340;2022-12-07T13:49:22;98983.91;;;11.56;37.58